Home > Products > Valid Products > TAF

000
FTUS43 KGRR 041142
TAFMKG
TAF
KMKG 041142Z 0412/0512 30012KT P6SM -RA BKN009
     FM041400 35014G21KT P6SM -RA OVC015
     FM042100 34016G22KT P6SM VCSH OVC025=



000
FTUS43 KGRR 041142
TAFLAN
TAF
KLAN 041142Z 0412/0512 21008KT P6SM BKN050
     FM041400 30007KT P6SM OVC025
     FM041900 35010G17KT 4SM -RA BR OVC015
     FM050200 01008KT 4SM -RA BR OVC007
     FM050500 01008KT P6SM OVC015
     FM050600 36007KT P6SM OVC050=



000
FTUS43 KGRR 041142
TAFJXN
TAF
KJXN 041142Z 0412/0512 21008KT P6SM BKN050
     FM041500 28006KT 4SM -RA OVC025
     FM042100 35008G15KT 4SM -RA BR OVC015
     FM050200 01006KT 4SM -RA BR OVC007
     FM050600 01004KT P6SM OVC015
     FM050700 02005KT P6SM OVC025
     FM050800 36007KT P6SM OVC050=



000
FTUS43 KGRR 041142
TAFBTL
TAF
KBTL 041142Z 0412/0512 16006KT P6SM BKN025
     FM041400 32008KT 4SM -RA BR OVC015
     FM041800 33012G19KT P6SM -RA OVC015
     FM050500 36009KT P6SM OVC007
     FM050700 36008KT P6SM OVC025=



000
FTUS43 KGRR 041142
TAFGRR
TAF
KGRR 041142Z 0412/0512 32008KT 6SM -RA OVC012
     FM041300 34012G19KT 4SM -RA OVC010
     FM050600 35010KT P6SM OVC015
     FM050800 35010KT P6SM OVC025
     FM050900 36010KT P6SM BKN050=



000
FTUS43 KGRR 041142
TAFAZO
TAF
KAZO 041142Z 0412/0512 16006KT P6SM BKN035
     FM041400 32008KT 4SM -RA BR OVC015
     FM041800 33012G19KT P6SM -RA OVC015
     FM050500 36009KT P6SM OVC007
     FM050700 36008KT P6SM OVC025=



000
FTUS43 KGRR 041029 AAC
TAFMKG
TAF AMD
KMKG 041029Z 0410/0506 35014KT P6SM -RA OVC008
     FM041300 35014G21KT P6SM -RA OVC015
     FM042100 34016G22KT P6SM VCSH OVC025=



000
FTUS43 KGRR 041014 AAB
TAFMKG
TAF AMD
KMKG 041014Z 0410/0506 35008KT P6SM -RA OVC025
     FM041300 35012G20KT P6SM -RA OVC015
     FM042100 34016G22KT P6SM VCSH OVC025=



000
FTUS43 KGRR 041014 AAB
TAFMKG
TAF AMD
KMKG 041014Z 0410/0506 35008KT P6SM -RA OVC025
     FM041300 35012G20KT P6SM -RA OVC015
     FM042100 34016G22KT P6SM VCSH OVC025=



000
FTUS43 KGRR 041013 AAB
TAFGRR
TAF AMD
KGRR 041013Z 0410/0506 27006KT P6SM VCSH OVC035
     FM041200 27005KT P6SM -RA OVC015
     FM041300 29007KT 4SM -RA OVC007
     FM041700 35010G20KT P6SM -RA OVC015=



000
FTUS43 KGRR 040838 AAA
TAFMKG
TAF AMD
KMKG 040838Z 0409/0506 30008KT 5SM -RA OVC007
     FM041300 35012G20KT P6SM -RA OVC015
     FM042100 34016G22KT P6SM VCSH OVC025=



000
FTUS43 KGRR 040838 AAA
TAFMKG
TAF AMD
KMKG 040838Z 0409/0506 30008KT 5SM -RA OVC007
     FM041300 35012G20KT P6SM -RA OVC015
     FM042100 34016G22KT P6SM VCSH OVC025=



000
FTUS43 KGRR 040540
TAFLAN
TAF
KLAN 040540Z 0406/0506 21007KT P6SM VCSH OVC050
     FM040900 22008KT P6SM -RA OVC025
     FM041000 22007KT 6SM -RA OVC015
     FM041100 23006KT 4SM -RA OVC009
     FM041800 36012G18KT 5SM -RA BR OVC007
     FM050000 01016G22KT 2SM BR OVC004=



000
FTUS43 KGRR 040540
TAFGRR
TAF
KGRR 040540Z 0406/0506 22008KT P6SM -RA OVC035
     FM040730 24006KT P6SM -RA OVC025
     FM040900 27005KT P6SM -RA OVC015
     FM041000 29007KT 4SM -RA OVC007
     FM041400 35010G20KT P6SM -RA OVC015=



000
FTUS43 KGRR 040540
TAFMKG
TAF
KMKG 040540Z 0406/0506 14007KT P6SM -RA OVC035
     FM040800 27005KT P6SM -RA OVC025
     FM041000 29008KT 5SM -RA OVC007
     FM041300 35012G20KT P6SM -RA OVC015
     FM042100 34016G22KT P6SM VCSH OVC025=



000
FTUS43 KGRR 040540
TAFJXN
TAF
KJXN 040540Z 0406/0506 20007KT P6SM VCSH OVC050
     FM040800 VRB04KT P6SM -RA OVC035
     FM040900 22008KT P6SM -RA OVC025
     FM041000 22007KT 6SM -RA OVC015
     FM041100 23006KT 4SM -RA OVC009
     FM041800 36012G18KT 5SM -RA BR OVC007
     FM050000 01016G22KT 2SM -DZ BR OVC004=



000
FTUS43 KGRR 040540
TAFBTL
TAF
KBTL 040540Z 0406/0506 20010KT P6SM BKN150
     FM040900 21006KT 6SM -RA OVC025
     FM041000 23006KT 4SM -RA BR OVC015
     FM041100 25006KT 2SM -RA BR OVC007
     FM041500 35012G20KT 3SM -RA BR OVC015=



000
FTUS43 KGRR 040540
TAFAZO
TAF
KAZO 040540Z 0406/0506 24010KT P6SM BKN150
     FM040900 21006KT 6SM -RA OVC025
     FM041000 23006KT 4SM -RA BR OVC015
     FM041100 25006KT 2SM -RA BR OVC007
     FM041400 35010G20KT 3SM -RA BR OVC015=



000
FTUS43 KGRR 040540
TAFAZO
TAF
KAZO 040540Z 0406/0506 24010KT P6SM BKN150
     FM040900 21006KT 6SM -RA OVC025
     FM041000 23006KT 4SM -RA BR OVC015
     FM041100 25006KT 2SM -RA BR OVC007
     FM041400 35010G20KT 3SM -RA BR OVC015=



000
FTUS43 KGRR 040540
TAFLAN
TAF
KLAN 040540Z 0406/0506 21007KT P6SM VCSH OVC050
     FM040900 22008KT P6SM -RA OVC025
     FM041000 22007KT 6SM -RA OVC015
     FM041100 23006KT 4SM -RA OVC009
     FM041800 36012G18KT 5SM -RA BR OVC007
     FM050000 01016G22KT 2SM BR OVC004=



000
FTUS43 KGRR 040540
TAFJXN
TAF
KJXN 040540Z 0406/0506 20007KT P6SM VCSH OVC050
     FM040800 VRB04KT P6SM -RA OVC035
     FM040900 22008KT P6SM -RA OVC025
     FM041000 22007KT 6SM -RA OVC015
     FM041100 23006KT 4SM -RA OVC009
     FM041800 36012G18KT 5SM -RA BR OVC007
     FM050000 01016G22KT 2SM -DZ BR OVC004=



000
FTUS43 KGRR 040540
TAFMKG
TAF
KMKG 040540Z 0406/0506 14007KT P6SM -RA OVC035
     FM040800 27005KT P6SM -RA OVC025
     FM041000 29008KT 5SM -RA OVC007
     FM041300 35012G20KT P6SM -RA OVC015
     FM042100 34016G22KT P6SM VCSH OVC025=



000
FTUS43 KGRR 040540
TAFGRR
TAF
KGRR 040540Z 0406/0506 22008KT P6SM -RA OVC035
     FM040730 24006KT P6SM -RA OVC025
     FM040900 27005KT P6SM -RA OVC015
     FM041000 29007KT 4SM -RA OVC007
     FM041400 35010G20KT P6SM -RA OVC015=



000
FTUS43 KGRR 040540
TAFBTL
TAF
KBTL 040540Z 0406/0506 20010KT P6SM BKN150
     FM040900 21006KT 6SM -RA OVC025
     FM041000 23006KT 4SM -RA BR OVC015
     FM041100 25006KT 2SM -RA BR OVC007
     FM041500 35012G20KT 3SM -RA BR OVC015=



000
FTUS43 KGRR 032340
TAFBTL
TAF
KBTL 032340Z 0400/0424 28007KT P6SM BKN150
     FM040900 21006KT 6SM -RA OVC025
     FM041000 23006KT 4SM -RA BR OVC015
     FM041100 25006KT 2SM -RA BR OVC007
     FM041400 35010G20KT P6SM -RA OVC015
     FM041800 33016G22KT 6SM -RA BR OVC007=



000
FTUS43 KGRR 032340
TAFAZO
TAF
KAZO 032340Z 0400/0424 28007KT P6SM BKN150
     FM040900 21006KT 6SM -RA OVC025
     FM041000 23006KT 4SM -RA BR OVC015
     FM041100 25006KT 2SM -RA BR OVC007
     FM041400 35010G20KT P6SM -RA OVC015
     FM041800 33016G22KT 6SM -RA BR OVC007=



000
FTUS43 KGRR 032340
TAFGRR
TAF
KGRR 032340Z 0400/0424 24011KT P6SM BKN150
     FM040600 21009KT P6SM VCSH OVC025
     FM040800 22007KT P6SM -RA OVC015
     FM041000 29007KT 4SM -RA OVC007
     FM041400 35010G20KT P6SM -RA OVC015
     FM041800 33016G22KT 6SM -RA BR OVC007=



000
FTUS43 KGRR 032340
TAFLAN
TAF
KLAN 032340Z 0400/0424 25011KT P6SM BKN100
     FM040600 21010KT P6SM OVC050
     FM040900 22008KT P6SM -RA OVC025
     FM041000 22007KT 6SM -RA OVC015
     FM041100 23006KT 4SM -RA OVC009
     FM041400 35010G20KT P6SM -RA OVC015
     FM041800 32012G18KT 5SM -RA BR OVC007=



000
FTUS43 KGRR 032340
TAFJXN
TAF
KJXN 032340Z 0400/0424 28011KT P6SM BKN100
     FM040600 21010KT P6SM OVC050
     FM040900 22008KT P6SM -RA OVC025
     FM041000 22007KT 6SM -RA OVC015
     FM041100 23006KT 4SM -RA OVC009
     FM041400 35010G20KT P6SM -RA OVC015
     FM041800 32012G18KT 5SM -RA BR OVC007=



000
FTUS43 KGRR 032340
TAFMKG
TAF
KMKG 032340Z 0400/0424 21011KT P6SM BKN150
     FM040400 23009KT P6SM -RA OVC035
     FM040600 25008KT P6SM -RA OVC015
     FM040800 29008KT 5SM -RA OVC007
     FM041300 35010G20KT P6SM -RA OVC015
     FM041800 34017G22KT P6SM -SHRA OVC015=



000
FTUS43 KGRR 031951 AAA
TAFMKG
TAF AMD
KMKG 031951Z 0320/0418 23012KT P6SM SCT060 BKN150
     FM040400 25009KT P6SM OVC025
     FM040600 22008KT P6SM -RA OVC015
     FM040800 27008KT 5SM -RA OVC007
     FM041300 35010G20KT P6SM -RA OVC015=



000
FTUS43 KGRR 031951 AAA
TAFJXN
TAF AMD
KJXN 031951Z 0320/0418 28009KT P6SM BKN060
     FM040400 21008KT P6SM OVC050
     FM041100 22008KT 5SM -RA OVC009
     FM041500 35010G20KT P6SM -RA OVC015=



000
FTUS43 KGRR 031951 AAA
TAFJXN
TAF AMD
KJXN 031951Z 0320/0418 28009KT P6SM BKN060
     FM040400 21008KT P6SM OVC050
     FM041100 22008KT 5SM -RA OVC009
     FM041500 35010G20KT P6SM -RA OVC015=



000
FTUS43 KGRR 031951 AAA
TAFMKG
TAF AMD
KMKG 031951Z 0320/0418 23012KT P6SM SCT060 BKN150
     FM040400 25009KT P6SM OVC025
     FM040600 22008KT P6SM -RA OVC015
     FM040800 27008KT 5SM -RA OVC007
     FM041300 35010G20KT P6SM -RA OVC015=



000
FTUS43 KGRR 031950 AAA
TAFAZO
TAF AMD
KAZO 031950Z 0320/0418 26009KT P6SM BKN060
     FM040900 21008KT 6SM -RA OVC025
     FM041000 23008KT 4SM -RA BR OVC015
     FM041100 25008KT 2SM -RA BR OVC007
     FM041400 35010G20KT P6SM -RA OVC015=



000
FTUS43 KGRR 031950 AAA
TAFBTL
TAF AMD
KBTL 031950Z 0320/0418 26007KT P6SM BKN060
     FM040900 22010KT P6SM -RA OVC025
     FM041000 21009KT 4SM -RA OVC015
     FM041100 21007KT 2SM -RA OVC009
     FM041400 35010G20KT P6SM -RA OVC015=



000
FTUS43 KGRR 031950 AAA
TAFBTL
TAF AMD
KBTL 031950Z 0320/0418 26007KT P6SM BKN060
     FM040900 22010KT P6SM -RA OVC025
     FM041000 21009KT 4SM -RA OVC015
     FM041100 21007KT 2SM -RA OVC009
     FM041400 35010G20KT P6SM -RA OVC015=



000
FTUS43 KGRR 031730
TAFGRR
TAF
KGRR 031730Z 0318/0418 23012KT P6SM FEW200
     FM040600 21009KT P6SM OVC025
     FM040800 22007KT P6SM -RA OVC015
     FM041000 27007KT 4SM -RA OVC007
     FM041400 35010G20KT P6SM -RA OVC015=



000
FTUS43 KGRR 031730
TAFBTL
TAF
KBTL 031730Z 0318/0418 26007KT P6SM SKC
     FM040900 22010KT P6SM -RA OVC025
     FM041000 21009KT 4SM -RA OVC015
     FM041100 21007KT 2SM -RA OVC009
     FM041400 35010G20KT P6SM -RA OVC015=



000
FTUS43 KGRR 031730
TAFMKG
TAF
KMKG 031730Z 0318/0418 28006KT P6SM SCT200
     FM040400 25009KT P6SM OVC025
     FM040600 22008KT P6SM -RA OVC015
     FM040800 27008KT 5SM -RA OVC007
     FM041300 35010G20KT P6SM -RA OVC015=



000
FTUS43 KGRR 031730
TAFLAN
TAF
KLAN 031730Z 0318/0418 28006KT P6SM FEW200
     FM040600 21010KT P6SM OVC050
     FM040900 22008KT P6SM -RA OVC025
     FM041000 22007KT 6SM -RA OVC015
     FM041100 23006KT 4SM -RA OVC009
     FM041400 35010G20KT P6SM -RA OVC015=



000
FTUS43 KGRR 031730
TAFJXN
TAF
KJXN 031730Z 0318/0418 28007KT P6SM SKC
     FM040400 21008KT P6SM OVC050
     FM041100 22008KT 5SM -RA OVC009
     FM041500 35010G20KT P6SM -RA OVC015=



000
FTUS43 KGRR 031730
TAFAZO
TAF
KAZO 031730Z 0318/0418 26007KT P6SM SKC
     FM040900 21008KT 6SM -RA OVC025
     FM041000 23008KT 4SM -RA BR OVC015
     FM041100 25008KT 2SM -RA BR OVC007
     FM041400 35010G20KT P6SM -RA OVC015=



000
FTUS43 KGRR 031730
TAFMKG
TAF
KMKG 031730Z 0318/0418 28006KT P6SM SCT200
     FM040400 25009KT P6SM OVC025
     FM040600 22008KT P6SM -RA OVC015
     FM040800 27008KT 5SM -RA OVC007
     FM041300 35010G20KT P6SM -RA OVC015=



000
FTUS43 KGRR 031730
TAFLAN
TAF
KLAN 031730Z 0318/0418 28006KT P6SM FEW200
     FM040600 21010KT P6SM OVC050
     FM040900 22008KT P6SM -RA OVC025
     FM041000 22007KT 6SM -RA OVC015
     FM041100 23006KT 4SM -RA OVC009
     FM041400 35010G20KT P6SM -RA OVC015=



000
FTUS43 KGRR 031730
TAFJXN
TAF
KJXN 031730Z 0318/0418 28007KT P6SM SKC
     FM040400 21008KT P6SM OVC050
     FM041100 22008KT 5SM -RA OVC009
     FM041500 35010G20KT P6SM -RA OVC015=



000
FTUS43 KGRR 031730
TAFAZO
TAF
KAZO 031730Z 0318/0418 26007KT P6SM SKC
     FM040900 21008KT 6SM -RA OVC025
     FM041000 23008KT 4SM -RA BR OVC015
     FM041100 25008KT 2SM -RA BR OVC007
     FM041400 35010G20KT P6SM -RA OVC015=



000
FTUS43 KGRR 031730
TAFGRR
TAF
KGRR 031730Z 0318/0418 23012KT P6SM FEW200
     FM040600 21009KT P6SM OVC025
     FM040800 22007KT P6SM -RA OVC015
     FM041000 27007KT 4SM -RA OVC007
     FM041400 35010G20KT P6SM -RA OVC015=



000
FTUS43 KGRR 031730
TAFBTL
TAF
KBTL 031730Z 0318/0418 26007KT P6SM SKC
     FM040900 22010KT P6SM -RA OVC025
     FM041000 21009KT 4SM -RA OVC015
     FM041100 21007KT 2SM -RA OVC009
     FM041400 35010G20KT P6SM -RA OVC015=



000
FTUS43 KGRR 031140
TAFBTL
TAF
KBTL 031140Z 0312/0412 26007KT P6SM SKC
     FM040900 22010KT P6SM -RA OVC025
     FM041000 21009KT 4SM -RA OVC015
     FM041100 21007KT 2SM -RA OVC015=



000
FTUS43 KGRR 031140
TAFMKG
TAF
KMKG 031140Z 0312/0412 28006KT P6SM SKC
     FM040400 25009KT P6SM OVC025
     FM040600 22008KT P6SM -RA OVC015
     FM040800 27008KT P6SM -RA OVC007=



000
FTUS43 KGRR 031140
TAFLAN
TAF
KLAN 031140Z 0312/0412 28006KT P6SM SKC
     FM040600 21010KT P6SM OVC050
     FM040900 22008KT P6SM -RA OVC025
     FM041000 22007KT 6SM -RA OVC015
     FM041100 23006KT 4SM -RA OVC015=



000
FTUS43 KGRR 031140
TAFAZO
TAF
KAZO 031140Z 0312/0412 26007KT P6SM SKC
     FM040900 21008KT 6SM -RA OVC025
     FM041000 23008KT 4SM -RA BR OVC015
     FM041100 25008KT 2SM -RA BR OVC007=



000
FTUS43 KGRR 031140
TAFGRR
TAF
KGRR 031140Z 0312/0412 25006KT P6SM SKC
     FM031800 23012KT P6SM OVC250
     FM040600 21009KT P6SM OVC025
     FM040800 22007KT P6SM -RA OVC015
     FM041000 27007KT 4SM -RA OVC007=



000
FTUS43 KGRR 031140
TAFJXN
TAF
KJXN 031140Z 0312/0412 30005KT P6SM SKC
     FM031800 28007KT P6SM BKN100
     FM040400 21008KT P6SM OVC050
     FM041100 22008KT P6SM -RA OVC025=



000
FTUS43 KGRR 031055 AAA
TAFJXN
TAF AMD
KJXN 031055Z 0311/0406 VRB04KT 1SM BR SKC
     FM031130 00000KT 3SM BR SKC
     FM031200 30005KT P6SM SKC
     FM040200 21004KT P6SM BKN100=



000
FTUS43 KGRR 031030 AAB
TAFBTL
TAF AMD
KBTL 031030Z 0311/0406 00000KT P6SM SKC
     FM031300 30005KT P6SM SCT250
     FM040300 21004KT P6SM VCSH OVC050=



000
FTUS43 KGRR 031030 AAB
TAFAZO
TAF AMD
KAZO 031030Z 0311/0406 00000KT P6SM SKC
     FM031300 30005KT P6SM SCT250
     FM040300 21004KT P6SM VCSH OVC050=



000
FTUS43 KGRR 031030 AAB
TAFLAN
TAF AMD
KLAN 031030Z 0311/0406 VRB04KT P6SM SKC
     FM031300 30005KT P6SM SCT250
     FM040300 21004KT P6SM VCSH OVC050=



000
FTUS43 KGRR 030957 AAA
TAFAZO
TAF AMD
KAZO 030957Z 0310/0406 00000KT 2SM BR SKC
     FM031300 30005KT P6SM SCT250
     FM040300 21004KT P6SM VCSH OVC050=



000
FTUS43 KGRR 030920 AAA
TAFBTL
TAF AMD
KBTL 030920Z 0309/0406 00000KT 2SM BR SKC
     FM031300 30005KT P6SM SCT250
     FM040300 21004KT P6SM VCSH OVC050=



000
FTUS43 KGRR 030908 AAA
TAFLAN
TAF AMD
KLAN 030908Z 0309/0406 VRB04KT 2SM BR SKC
     FM031300 30005KT P6SM SCT250
     FM040300 21004KT P6SM VCSH OVC050=



000
FTUS43 KGRR 030540
TAFJXN
TAF
KJXN 030540Z 0306/0406 VRB04KT P6SM OVC060
     FM031300 30005KT P6SM BKN120=



000
FTUS43 KGRR 030540
TAFGRR
TAF
KGRR 030540Z 0306/0406 02004KT P6SM SKC
     FM031700 25012KT P6SM SCT100=



000
FTUS43 KGRR 030540
TAFJXN
TAF
KJXN 030540Z 0306/0406 VRB04KT P6SM BKN060
     FM031300 30005KT P6SM BKN150
     FM040200 21004KT P6SM BKN100=



000
FTUS43 KGRR 030540
TAFLAN
TAF
KLAN 030540Z 0306/0406 VRB03KT P6SM BKN070
     FM031800 26011KT P6SM SCT120=



000
FTUS43 KGRR 030540
TAFBTL
TAF
KBTL 030540Z 0306/0406 04004KT P6SM BKN060
     FM031700 26011KT P6SM SCT120=



000
FTUS43 KGRR 030540
TAFAZO
TAF
KAZO 030540Z 0306/0406 VRB04KT P6SM BKN060
     FM031300 30005KT P6SM SCT250
     FM040300 21004KT P6SM VCSH OVC050=



000
FTUS43 KGRR 030540
TAFGRR
TAF
KGRR 030540Z 0306/0406 VRB04KT P6SM SCT080
     FM031300 30005KT P6SM SCT250
     FM040200 21004KT P6SM VCSH OVC050=



000
FTUS43 KGRR 030540
TAFMKG
TAF
KMKG 030540Z 0306/0406 VRB03KT P6SM SCT070
     FM031600 24011KT P6SM BKN070
     FM032300 21012KT P6SM VCSH OVC050=



000
FTUS43 KGRR 030540
TAFBTL
TAF
KBTL 030540Z 0306/0406 VRB04KT P6SM BKN060
     FM031300 30005KT P6SM SCT250
     FM040300 21004KT P6SM VCSH OVC050=



000
FTUS43 KGRR 030540
TAFMKG
TAF
KMKG 030540Z 0306/0406 VRB04KT P6SM BKN080
     FM031300 30005KT P6SM SCT250
     FM040200 21004KT P6SM VCSH OVC050=



000
FTUS43 KGRR 030540
TAFAZO
TAF
KAZO 030540Z 0306/0406 VRB03KT P6SM BKN060
     FM031700 26011KT P6SM SCT120=



000
FTUS43 KGRR 030540
TAFLAN
TAF
KLAN 030540Z 0306/0406 VRB04KT P6SM BKN060
     FM031300 30005KT P6SM SCT250
     FM040300 21004KT P6SM VCSH OVC050=



000
FTUS43 KGRR 022330
TAFJXN
TAF
KJXN 022330Z 0300/0324 04004KT P6SM OVC035
     FM030200 VRB03KT P6SM BKN045
     FM031300 30005KT P6SM SCT250=



000
FTUS43 KGRR 022330
TAFGRR
TAF
KGRR 022330Z 0300/0324 02004KT P6SM BKN050
     FM030400 VRB03KT P6SM SCT250
     FM031700 25012KT P6SM BKN250=



000
FTUS43 KGRR 022330
TAFLAN
TAF
KLAN 022330Z 0300/0324 07003KT P6SM BKN050
     FM030800 VRB03KT P6SM SCT040
     FM031800 26011KT P6SM BKN250=



000
FTUS43 KGRR 022330
TAFMKG
TAF
KMKG 022330Z 0300/0324 VRB03KT P6SM SCT070
     FM031600 23011KT P6SM BKN070
     FM032300 21012KT P6SM VCSH OVC070=



000
FTUS43 KGRR 022330
TAFAZO
TAF
KAZO 022330Z 0300/0324 VRB03KT P6SM BKN050
     FM031000 30004KT P6SM BKN080
     FM031900 26011KT P6SM BKN250=



000
FTUS43 KGRR 022330
TAFBTL
TAF
KBTL 022330Z 0300/0324 04004KT P6SM BKN050
     FM031000 30004KT P6SM BKN080
     FM031900 26011KT P6SM BKN250=



000
FTUS43 KGRR 022330
TAFAZO
TAF
KAZO 022330Z 0300/0324 VRB03KT P6SM BKN050
     FM031000 30004KT P6SM BKN080
     FM031900 26011KT P6SM BKN250=



000
FTUS43 KGRR 022330
TAFMKG
TAF
KMKG 022330Z 0300/0324 VRB03KT P6SM SCT070
     FM031600 23011KT P6SM BKN070
     FM032300 21012KT P6SM VCSH OVC070=



000
FTUS43 KGRR 022330
TAFBTL
TAF
KBTL 022330Z 0300/0324 04004KT P6SM BKN050
     FM031000 30004KT P6SM BKN080
     FM031900 26011KT P6SM BKN250=



000
FTUS43 KGRR 022330
TAFJXN
TAF
KJXN 022330Z 0300/0324 04004KT P6SM OVC035
     FM030200 VRB03KT P6SM BKN045
     FM031300 30005KT P6SM SCT250=



000
FTUS43 KGRR 022330
TAFGRR
TAF
KGRR 022330Z 0300/0324 02004KT P6SM BKN050
     FM030400 VRB03KT P6SM SCT250
     FM031700 25012KT P6SM BKN250=



000
FTUS43 KGRR 022330
TAFLAN
TAF
KLAN 022330Z 0300/0324 07003KT P6SM BKN050
     FM030800 VRB03KT P6SM SCT040
     FM031800 26011KT P6SM BKN250=



000
FTUS43 KGRR 022034 AAA
TAFBTL
TAF AMD
KBTL 022034Z 0221/0318 08005KT P6SM VCSH OVC025
     FM022145 06004KT P6SM BKN040
     FM030500 VRB03KT P6SM SCT200=



000
FTUS43 KGRR 022032 AAA
TAFAZO
TAF AMD
KAZO 022032Z 0221/0318 02005KT P6SM VCSH OVC025
     FM022145 01004KT P6SM BKN045
     FM030500 05004KT P6SM SCT070=



000
FTUS43 KGRR 021731
TAFLAN
TAF
KLAN 021731Z 0218/0318 06008KT P6SM VCSH SCT015 OVC040
      TEMPO 0218/0220 BKN015
     FM022000 06006KT P6SM BKN040
     FM030200 VRB03KT P6SM SCT250=



000
FTUS43 KGRR 021731
TAFAZO
TAF
KAZO 021731Z 0218/0318 04005KT P6SM VCSH OVC025
     FM021930 03006KT P6SM VCSH OVC040
     FM022145 02004KT P6SM BKN045
     FM030500 05004KT P6SM SCT070=



000
FTUS43 KGRR 021731
TAFGRR
TAF
KGRR 021731Z 0218/0318 07008KT P6SM BKN040
     FM022300 04004KT P6SM SCT070=



000
FTUS43 KGRR 021731
TAFMKG
TAF
KMKG 021731Z 0218/0318 01012KT P6SM BKN060
     FM022100 01004KT P6SM SCT070=



000
FTUS43 KGRR 021731
TAFBTL
TAF
KBTL 021731Z 0218/0318 05007KT P6SM VCSH OVC015
      TEMPO 0218/0220 OVC025
     FM022000 06006KT P6SM VCSH OVC040
     FM022145 04004KT P6SM BKN040
     FM030500 VRB03KT P6SM SCT200=



000
FTUS43 KGRR 021731
TAFJXN
TAF
KJXN 021731Z 0218/0318 04006KT P6SM VCSH OVC012
     FM022000 06004KT P6SM VCSH OVC025
     FM022200 06004KT P6SM BKN040
     FM030700 00000KT P6SM SCT200=



000
FTUS43 KGRR 021508 AAA
TAFJXN
TAF AMD
KJXN 021508Z 0215/0312 06007KT P6SM OVC008
     FM021900 06005KT P6SM OVC025
     FM022200 05008KT P6SM OVC035
     FM030300 00000KT P6SM SCT050
     FM030900 00000KT 2SM BR SCT005=



000
FTUS43 KGRR 021508 AAA
TAFJXN
TAF AMD
KJXN 021508Z 0215/0312 06007KT P6SM OVC008
     FM021900 06005KT P6SM OVC025
     FM022200 05008KT P6SM OVC035
     FM030300 00000KT P6SM SCT050
     FM030900 00000KT 2SM BR SCT005=



000
FTUS43 KGRR 021507 AAA
TAFLAN
TAF AMD
KLAN 021507Z 0215/0312 05007KT P6SM OVC008
     FM021700 06008KT P6SM OVC015
     FM021900 06006KT P6SM BKN035
     FM030000 00000KT P6SM SCT050=



000
FTUS43 KGRR 021505 AAA
TAFGRR
TAF AMD
KGRR 021505Z 0215/0312 06008KT P6SM SCT025 BKN070
      TEMPO 0215/0219 BKN025
     FM021900 06007KT P6SM OVC035
     FM030000 05004KT P6SM SCT050=



000
FTUS43 KGRR 021140
TAFJXN
TAF
KJXN 021140Z 0212/0312 03006KT 2SM BR VCSH OVC004
     FM021500 04008KT P6SM OVC008
     FM021700 04008KT P6SM OVC015
     FM021900 04005KT P6SM OVC025
     FM022200 05008KT P6SM OVC035
     FM030300 00000KT P6SM SCT050
     FM030900 00000KT 2SM BR SCT005=



000
FTUS43 KGRR 021140
TAFGRR
TAF
KGRR 021140Z 0212/0312 02008KT P6SM BKN050
     FM021600 05010KT P6SM OVC035
     FM030000 05004KT P6SM SCT050=



000
FTUS43 KGRR 021140
TAFBTL
TAF
KBTL 021140Z 0212/0312 02008KT 3SM BR VCSH OVC005
     FM021500 03008KT P6SM OVC012
     FM021700 05006KT P6SM OVC025
     FM021900 05008KT P6SM OVC035
     FM030200 00000KT P6SM SCT050=



000
FTUS43 KGRR 021140
TAFGRR
TAF
KGRR 021140Z 0212/0312 02008KT P6SM BKN050
     FM021600 05010KT P6SM OVC035
     FM030000 05004KT P6SM SCT050=



000
FTUS43 KGRR 021140
TAFJXN
TAF
KJXN 021140Z 0212/0312 03006KT 2SM BR VCSH OVC004
     FM021500 04008KT P6SM OVC008
     FM021700 04008KT P6SM OVC015
     FM021900 04005KT P6SM OVC025
     FM022200 05008KT P6SM OVC035
     FM030300 00000KT P6SM SCT050
     FM030900 00000KT 2SM BR SCT005=



000
FTUS43 KGRR 021140
TAFAZO
TAF
KAZO 021140Z 0212/0312 02008KT 4SM BR VCSH OVC006
     FM021500 03008KT P6SM OVC012
     FM021700 05006KT P6SM OVC025
     FM021900 05008KT P6SM OVC035
     FM030200 00000KT P6SM SCT050=



000
FTUS43 KGRR 021140
TAFLAN
TAF
KLAN 021140Z 0212/0312 02008KT P6SM VCSH OVC008
     FM021400 03008KT P6SM OVC015
     FM021600 04009KT P6SM OVC025
     FM021800 06008KT P6SM BKN035
     FM030000 00000KT P6SM SCT050=



000
FTUS43 KGRR 021140
TAFMKG
TAF
KMKG 021140Z 0212/0312 03008KT P6SM SCT050
     FM021700 34009KT P6SM BKN050
     FM030300 00000KT P6SM SCT050=



000
FTUS43 KGRR 021140
TAFLAN
TAF
KLAN 021140Z 0212/0312 02008KT P6SM VCSH OVC008
     FM021400 03008KT P6SM OVC015
     FM021600 04009KT P6SM OVC025
     FM021800 06008KT P6SM BKN035
     FM030000 00000KT P6SM SCT050=



000
FTUS43 KGRR 021140
TAFMKG
TAF
KMKG 021140Z 0212/0312 03008KT P6SM SCT050
     FM021700 34009KT P6SM BKN050
     FM030300 00000KT P6SM SCT050=



000
FTUS43 KGRR 021140
TAFBTL
TAF
KBTL 021140Z 0212/0312 02008KT 3SM BR VCSH OVC005
     FM021500 03008KT P6SM OVC012
     FM021700 05006KT P6SM OVC025
     FM021900 05008KT P6SM OVC035
     FM030200 00000KT P6SM SCT050=



000
FTUS43 KGRR 021140
TAFAZO
TAF
KAZO 021140Z 0212/0312 02008KT 4SM BR VCSH OVC006
     FM021500 03008KT P6SM OVC012
     FM021700 05006KT P6SM OVC025
     FM021900 05008KT P6SM OVC035
     FM030200 00000KT P6SM SCT050=



000
FTUS43 KGRR 020948 AAB
TAFGRR
TAF AMD
KGRR 020948Z 0210/0306 01009KT P6SM SCT015 OVC050
     FM021500 05010KT P6SM OVC035
     FM030000 05004KT P6SM SCT035=



000
FTUS43 KGRR 020942 AAA
TAFJXN
TAF AMD
KJXN 020942Z 0210/0306 01006KT P6SM OVC004
     FM021500 04008KT P6SM OVC008
     FM021700 04008KT P6SM OVC015
     FM021900 04005KT P6SM OVC025
     FM022200 05008KT P6SM OVC035=



000
FTUS43 KGRR 020940 AAA
TAFAZO
TAF AMD
KAZO 020940Z 0210/0306 01008KT P6SM OVC007
     FM021400 03009KT P6SM OVC012
     FM021700 05010KT P6SM OVC025
     FM021900 05008KT P6SM BKN035=



000
FTUS43 KGRR 020938 AAA
TAFBTL
TAF AMD
KBTL 020938Z 0210/0306 01010KT P6SM OVC004
     FM021400 03010KT P6SM OVC012
     FM021700 06010KT P6SM OVC025
     FM021900 05008KT P6SM BKN035=



000
FTUS43 KGRR 020920 AAA
TAFLAN
TAF AMD
KLAN 020920Z 0209/0306 02010KT P6SM VCSH OVC005
     FM021200 04009KT P6SM OVC025
     FM021800 07008KT P6SM BKN035=



000
FTUS43 KGRR 020539
TAFLAN
TAF
KLAN 020539Z 0206/0306 02007KT 5SM -RA OVC015
     FM021000 02008KT P6SM OVC015
     FM021500 05009KT P6SM OVC025
     FM021800 07008KT P6SM BKN035=



000
FTUS43 KGRR 020539
TAFJXN
TAF
KJXN 020539Z 0206/0306 04008KT 6SM -RA BR OVC015
     FM020800 06007KT 4SM -RA BR OVC008
     FM021200 03009KT P6SM VCSH OVC006
     FM021400 04008KT P6SM OVC015
     FM021900 04005KT P6SM OVC025
     FM022200 05008KT P6SM OVC035=



000
FTUS43 KGRR 020539
TAFGRR
TAF
KGRR 020539Z 0206/0306 05012KT P6SM -RA OVC035
      TEMPO 0206/0209 5SM -RA BR OVC025
     FM020900 04008KT P6SM OVC025
     FM021500 04008KT P6SM OVC035=



000
FTUS43 KGRR 020539
TAFAZO
TAF
KAZO 020539Z 0206/0306 02007KT 6SM -RA BR SCT008 OVC035
     FM020700 03007KT 5SM BR VCSH OVC006
     FM021400 03009KT P6SM OVC012
     FM021700 02010KT P6SM OVC025
     FM021900 05008KT P6SM BKN035=



000
FTUS43 KGRR 020539
TAFBTL
TAF
KBTL 020539Z 0206/0306 05010KT 5SM -RA BR SCT005 OVC035
     FM020700 03009KT 4SM BR VCSH OVC006
     FM021400 03010KT P6SM OVC012
     FM021700 02010KT P6SM OVC025
     FM021900 05008KT P6SM BKN035=



000
FTUS43 KGRR 020539
TAFMKG
TAF
KMKG 020539Z 0206/0306 05009G16KT P6SM VCSH OVC035
     FM020900 04008KT P6SM BKN040=



000
FTUS43 KGRR 020324 AAB
TAFLAN
TAF AMD
KLAN 020324Z 0203/0224 04012KT P6SM VCSH OVC035
     FM020440 04012KT 5SM -RA BR OVC025
     FM021100 05006KT P6SM VCSH OVC015
     FM021600 04010KT P6SM BKN025
     FM022000 05008KT P6SM BKN035=



000
FTUS43 KGRR 020309 AAA
TAFJXN
TAF AMD
KJXN 020309Z 0203/0224 04010KT P6SM VCSH OVC015
     FM020420 06008G16KT 4SM -RA BR VCTS OVC007CB
     FM020700 01007KT 4SM -RA BR OVC007
     FM021400 04008KT P6SM BKN015
     FM022100 04005KT P6SM OVC025
     FM022200 05008KT P6SM BKN035=



000
FTUS43 KGRR 020306 AAB
TAFBTL
TAF AMD
KBTL 020306Z 0203/0224 06008G16KT 4SM -RA BR VCTS OVC007CB
     FM020700 01007KT 4SM -RA BR OVC007
     FM021400 03009KT 6SM BR OVC012
     FM021700 02010KT P6SM OVC025
     FM021900 05008KT P6SM BKN035=



000
FTUS43 KGRR 020306 AAB
TAFBTL
TAF AMD
KBTL 020306Z 0203/0224 06008G16KT 4SM -RA BR VCTS OVC007CB
     FM020700 01007KT 4SM -RA BR OVC007
     FM021400 03009KT 6SM BR OVC012
     FM021700 02010KT P6SM OVC025
     FM021900 05008KT P6SM BKN035=



000
FTUS43 KGRR 020305 AAB
TAFAZO
TAF AMD
KAZO 020305Z 0203/0224 06008G16KT 4SM -RA BR VCTS OVC007CB
     FM020700 01007KT 4SM -RA BR OVC007
     FM021400 03009KT 6SM BR OVC012
     FM021700 02010KT P6SM OVC025
     FM021900 05008KT P6SM BKN035=



000
FTUS43 KGRR 020305 AAB
TAFAZO
TAF AMD
KAZO 020305Z 0203/0224 06008G16KT 4SM -RA BR VCTS OVC007CB
     FM020700 01007KT 4SM -RA BR OVC007
     FM021400 03009KT 6SM BR OVC012
     FM021700 02010KT P6SM OVC025
     FM021900 05008KT P6SM BKN035=



000
FTUS43 KGRR 020230 AAA
TAFLAN
TAF AMD
KLAN 020230Z 0203/0224 04012KT 6SM BR VCSH OVC015
     FM020400 04012KT 4SM -RA BR OVC015
     FM021100 05006KT P6SM VCSH OVC015
     FM021600 04010KT P6SM BKN025
     FM022000 05008KT P6SM BKN035=



000
FTUS43 KGRR 020203 AAB
TAFGRR
TAF AMD
KGRR 020203Z 0202/0224 06013G21KT P6SM OVC035
     FM020330 05012G20KT P6SM -RA OVC035
     FM020800 04008KT P6SM OVC025
     FM021300 03009KT P6SM BKN025
     FM021500 04008KT P6SM OVC035=



000
FTUS43 KGRR 020203 AAB
TAFGRR
TAF AMD
KGRR 020203Z 0202/0224 06013G21KT P6SM OVC035
     FM020330 05012G20KT P6SM -RA OVC035
     FM020800 04008KT P6SM OVC025
     FM021300 03009KT P6SM BKN025
     FM021500 04008KT P6SM OVC035=



000
FTUS43 KGRR 020146 AAA
TAFBTL
TAF AMD
KBTL 020146Z 0202/0224 04011KT P6SM OVC005
     FM020246 04010KT 6SM -RA BR OVC007
     FM021500 05008KT P6SM BKN015
     FM021700 02010KT P6SM OVC025
     FM021900 05008KT P6SM BKN035=



000
FTUS43 KGRR 020122 AAA
TAFMKG
TAF AMD
KMKG 020122Z 0201/0224 05008KT P6SM VCSH OVC035
     FM020600 04008KT P6SM BKN040=



000
FTUS43 KGRR 020116 AAA
TAFAZO
TAF AMD
KAZO 020116Z 0201/0224 05007KT P6SM OVC007
     FM020220 04007KT 4SM -RA BR OVC007
     FM021400 03009KT 6SM BR OVC012
     FM021700 02010KT P6SM OVC025
     FM021900 05008KT P6SM BKN035=



000
FTUS43 KGRR 020116 AAA
TAFAZO
TAF AMD
KAZO 020116Z 0201/0224 05007KT P6SM OVC007
     FM020220 04007KT 4SM -RA BR OVC007
     FM021400 03009KT 6SM BR OVC012
     FM021700 02010KT P6SM OVC025
     FM021900 05008KT P6SM BKN035=



000
FTUS43 KGRR 012340
TAFGRR
TAF
KGRR 012340Z 0200/0224 06013KT P6SM OVC015
     FM020200 05012KT P6SM -RA OVC015
     FM020600 04008KT P6SM OVC015
     FM021300 03009KT P6SM BKN025
     FM021500 04008KT P6SM OVC035=



000
FTUS43 KGRR 012340
TAFLAN
TAF
KLAN 012340Z 0200/0224 06010KT P6SM OVC007
     FM020200 04010KT 6SM BR VCSH OVC007
     FM020300 04009KT 4SM -RA BR VCSH OVC007
     FM021100 05006KT P6SM VCSH OVC015
     FM021600 04010KT P6SM BKN025
     FM022000 05008KT P6SM BKN035=



000
FTUS43 KGRR 012340
TAFMKG
TAF
KMKG 012340Z 0200/0224 04009KT P6SM OVC025
     FM020200 05008KT P6SM VCSH OVC025
     FM020600 04008KT P6SM BKN040=



000
FTUS43 KGRR 012340
TAFJXN
TAF
KJXN 012340Z 0200/0224 04010KT P6SM OVC015
      TEMPO 0200/0202 OVC009
     FM020200 06009KT 5SM -RA BR OVC007
     FM020500 05008KT 3SM -RA BR OVC004
     FM021500 04008KT P6SM BKN015
     FM022100 04005KT P6SM OVC025
     FM022200 05008KT P6SM BKN035=



000
FTUS43 KGRR 012340
TAFAZO
TAF
KAZO 012340Z 0200/0224 05007KT P6SM OVC007
     FM020100 04007KT P6SM VCSH OVC015
     FM020300 04007KT 4SM -RA BR OVC007
     FM021400 03009KT 6SM BR OVC012
     FM021700 02010KT P6SM OVC025
     FM021900 05008KT P6SM BKN035=



000
FTUS43 KGRR 012340
TAFBTL
TAF
KBTL 012340Z 0200/0224 04008KT P6SM OVC007
     FM020300 04010KT 6SM -RA BR OVC007
     FM021500 05008KT P6SM BKN015
     FM021700 02010KT P6SM OVC025
     FM021900 05008KT P6SM BKN035=



000
FTUS43 KGRR 012110 AAA
TAFAZO
TAF AMD
KAZO 012110Z 0121/0218 07007KT P6SM OVC007
     FM012211 04007KT P6SM VCSH OVC015
     FM020300 04007KT 4SM -RA BR OVC007
     FM021400 03009KT 6SM BR OVC012
     FM021700 02010KT P6SM BKN025=



000
FTUS43 KGRR 011929 AAA
TAFJXN
TAF AMD
KJXN 011929Z 0119/0218 04008KT P6SM OVC007
      TEMPO 0120/0121 4SM BR OVC003
     FM012300 04010KT 6SM BR VCSH OVC007
     FM020200 06009KT 5SM BR VCSH OVC007
     FM020500 05008KT 3SM BR VCSH OVC003
     FM021500 04008KT P6SM BKN015=



000
FTUS43 KGRR 011929 AAA
TAFJXN
TAF AMD
KJXN 011929Z 0119/0218 04008KT P6SM OVC007
      TEMPO 0120/0121 4SM BR OVC003
     FM012300 04010KT 6SM BR VCSH OVC007
     FM020200 06009KT 5SM BR VCSH OVC007
     FM020500 05008KT 3SM BR VCSH OVC003
     FM021500 04008KT P6SM BKN015=



000
FTUS43 KGRR 011928 AAB
TAFGRR
TAF AMD
KGRR 011928Z 0119/0218 06012KT P6SM OVC012
      TEMPO 0119/0123 OVC008
     FM020600 04008KT P6SM OVC015
     FM021300 03009KT P6SM SCT025=



000
FTUS43 KGRR 011928 AAB
TAFGRR
TAF AMD
KGRR 011928Z 0119/0218 06012KT P6SM OVC012
      TEMPO 0119/0123 OVC008
     FM020600 04008KT P6SM OVC015
     FM021300 03009KT P6SM SCT025=



000
FTUS43 KGRR 011926 AAA
TAFMKG
TAF AMD
KMKG 011926Z 0119/0218 04010KT P6SM OVC025
     FM020000 05008KT P6SM VCSH OVC025
     FM020500 04008KT P6SM BKN040=



000
FTUS43 KGRR 011738
TAFMKG
TAF
KMKG 011738Z 0118/0218 04010KT P6SM OVC015
      TEMPO 0121/0124 OVC025
     FM020000 05008KT P6SM VCSH OVC025
     FM020500 04008KT P6SM BKN040=



000
FTUS43 KGRR 011738
TAFMKG
TAF
KMKG 011738Z 0118/0218 04010KT P6SM OVC015
      TEMPO 0121/0124 OVC025
     FM020000 05008KT P6SM VCSH OVC025
     FM020500 04008KT P6SM BKN040=



000
FTUS43 KGRR 011738
TAFJXN
TAF
KJXN 011738Z 0118/0218 04006KT 5SM BR OVC003
     FM012000 04008KT P6SM OVC007
      TEMPO 0120/0123 OVC003
     FM012300 04010KT 6SM BR VCSH OVC007
     FM020200 06009KT 5SM BR VCSH OVC007
     FM020500 05008KT 3SM BR VCSH OVC003
     FM021500 04008KT P6SM BKN015=



000
FTUS43 KGRR 011738
TAFBTL
TAF
KBTL 011738Z 0118/0218 05008KT P6SM OVC007
     FM012100 05010KT P6SM VCSH OVC015
      TEMPO 0121/0124 OVC007
     FM020300 04010KT 6SM BR VCSH OVC007
     FM021500 05008KT P6SM BKN015=



000
FTUS43 KGRR 011738
TAFLAN
TAF
KLAN 011738Z 0118/0218 06010KT 5SM BR OVC007
     FM020100 04010KT 6SM BR VCSH OVC007
     FM020400 04009KT 4SM BR VCSH OVC007
     FM021400 04010KT P6SM BKN025=



000
FTUS43 KGRR 011738
TAFGRR
TAF
KGRR 011738Z 0118/0218 04010KT P6SM OVC007
     FM012100 04008KT P6SM VCSH OVC015
      TEMPO 0121/0124 4SM BR OVC007
     FM020600 04008KT P6SM OVC015
     FM021300 03009KT P6SM SCT025=



000
FTUS43 KGRR 011738
TAFAZO
TAF
KAZO 011738Z 0118/0218 04010KT P6SM OVC007
     FM012100 04008KT P6SM VCSH OVC015
     FM020300 04007KT 4SM -RA BR OVC007
     FM021400 03009KT 6SM BR OVC012
     FM021700 02010KT P6SM BKN025=



000
FTUS43 KGRR 011239 AAA
TAFLAN
TAF AMD
KLAN 011239Z 0113/0212 04010KT 2SM BR OVC005
      TEMPO 0113/0115 1SM -DZ BR OVC003
     FM011600 04010KT 5SM BR OVC008
     FM012100 04010KT P6SM OVC015
     FM020200 03009KT 5SM -RA BR OVC005=



000
FTUS43 KGRR 011237 AAA
TAFBTL
TAF AMD
KBTL 011237Z 0113/0212 05006KT 3SM BR OVC003
      TEMPO 0113/0115 1SM -DZ BR
     FM011500 04006KT 5SM BR OVC007
     FM012000 04006KT P6SM OVC012
     FM020100 03009KT 4SM -RA BR OVC004=



000
FTUS43 KGRR 011235 AAA
TAFGRR
TAF AMD
KGRR 011235Z 0113/0212 05010KT 3SM -DZ BR OVC004
      TEMPO 0113/0115 1SM -DZ BR
     FM011500 05011KT 5SM BR OVC007
     FM012000 06009KT P6SM OVC015
     FM020300 04010KT 6SM -RA BR OVC009=



000
FTUS43 KGRR 011235 AAA
TAFGRR
TAF AMD
KGRR 011235Z 0113/0212 05010KT 3SM -DZ BR OVC004
      TEMPO 0113/0115 1SM -DZ BR
     FM011500 05011KT 5SM BR OVC007
     FM012000 06009KT P6SM OVC015
     FM020300 04010KT 6SM -RA BR OVC009=



    US Dept of Commerce
    National Oceanic and Atmospheric Administration
    National Weather Service
    1325 East West Highway
    Silver Spring, MD 20910
    Page Author: NWS Internet Services Team
Disclaimer
Information Quality
Credits
Glossary
Privacy Policy
Freedom of Information Act (FOIA)
About Us
Career Opportunities